sensor_id;sensor_type;location;lat;lon;timestamp;temperature;humidity
29917;DHT22;16786;49.466;11.068;2022-10-16T00:01:28;15.90;99.90
29917;DHT22;16786;49.466;11.068;2022-10-16T00:03:58;15.90;99.90
29917;DHT22;16786;49.466;11.068;2022-10-16T00:06:26;15.90;99.90
29917;DHT22;16786;49.466;11.068;2022-10-16T00:08:55;15.90;99.90
29917;DHT22;16786;49.466;11.068;2022-10-16T00:11:27;15.90;99.90
29917;DHT22;16786;49.466;11.068;2022-10-16T00:13:57;15.90;99.90
29917;DHT22;16786;49.466;11.068;2022-10-16T00:16:25;15.90;99.90
29917;DHT22;16786;49.466;11.068;2022-10-16T00:18:53;15.80;99.90
29917;DHT22;16786;49.466;11.068;2022-10-16T00:21:23;15.80;99.90
29917;DHT22;16786;49.466;11.068;2022-10-16T00:24:10;15.90;99.90
29917;DHT22;16786;49.466;11.068;2022-10-16T00:26:38;15.90;99.90
29917;DHT22;16786;49.466;11.068;2022-10-16T00:29:07;15.80;99.90
29917;DHT22;16786;49.466;11.068;2022-10-16T00:31:35;15.90;99.90
29917;DHT22;16786;49.466;11.068;2022-10-16T00:34:02;15.80;99.90
29917;DHT22;16786;49.466;11.068;2022-10-16T00:36:30;15.90;99.90
29917;DHT22;16786;49.466;11.068;2022-10-16T00:38:57;15.90;99.90
29917;DHT22;16786;49.466;11.068;2022-10-16T00:41:32;15.80;99.90
29917;DHT22;16786;49.466;11.068;2022-10-16T00:44:02;15.80;99.90
29917;DHT22;16786;49.466;11.068;2022-10-16T00:49:16;15.90;99.90
29917;DHT22;16786;49.466;11.068;2022-10-16T00:51:50;15.80;99.90
29917;DHT22;16786;49.466;11.068;2022-10-16T00:54:22;15.80;99.90
29917;DHT22;16786;49.466;11.068;2022-10-16T00:56:50;15.80;99.90
29917;DHT22;16786;49.466;11.068;2022-10-16T00:59:25;15.80;99.90
29917;DHT22;16786;49.466;11.068;2022-10-16T01:01:54;15.90;99.90
29917;DHT22;16786;49.466;11.068;2022-10-16T01:04:23;15.90;99.90
29917;DHT22;16786;49.466;11.068;2022-10-16T01:07:39;15.90;99.90
29917;DHT22;16786;49.466;11.068;2022-10-16T01:12:41;15.80;99.90
29917;DHT22;16786;49.466;11.068;2022-10-16T01:17:57;15.70;99.90
29917;DHT22;16786;49.466;11.068;2022-10-16T01:20:35;15.60;99.90
29917;DHT22;16786;49.466;11.068;2022-10-16T01:28:36;15.70;99.90
29917;DHT22;16786;49.466;11.068;2022-10-16T01:31:06;15.60;99.90
29917;DHT22;16786;49.466;11.068;2022-10-16T01:33:40;15.60;99.90
29917;DHT22;16786;49.466;11.068;2022-10-16T01:36:15;15.60;99.90
29917;DHT22;16786;49.466;11.068;2022-10-16T01:38:46;15.60;99.90
29917;DHT22;16786;49.466;11.068;2022-10-16T01:41:24;15.60;99.90
29917;DHT22;16786;49.466;11.068;2022-10-16T01:44:11;15.60;99.90
29917;DHT22;16786;49.466;11.068;2022-10-16T01:46:42;15.60;99.90
29917;DHT22;16786;49.466;11.068;2022-10-16T01:49:11;15.60;99.90
29917;DHT22;16786;49.466;11.068;2022-10-16T01:51:42;15.60;99.90
29917;DHT22;16786;49.466;11.068;2022-10-16T01:54:12;15.60;99.90
29917;DHT22;16786;49.466;11.068;2022-10-16T01:56:41;15.60;99.90
29917;DHT22;16786;49.466;11.068;2022-10-16T01:59:15;15.60;99.90
29917;DHT22;16786;49.466;11.068;2022-10-16T02:01:48;15.70;99.90
29917;DHT22;16786;49.466;11.068;2022-10-16T02:04:20;15.70;99.90
29917;DHT22;16786;49.466;11.068;2022-10-16T02:06:48;15.80;99.90
29917;DHT22;16786;49.466;11.068;2022-10-16T02:09:16;15.80;99.90
29917;DHT22;16786;49.466;11.068;2022-10-16T02:11:44;15.80;99.90
29917;DHT22;16786;49.466;11.068;2022-10-16T02:14:12;15.70;99.90
29917;DHT22;16786;49.466;11.068;2022-10-16T02:16:44;15.70;99.90
29917;DHT22;16786;49.466;11.068;2022-10-16T02:19:13;15.70;99.90
29917;DHT22;16786;49.466;11.068;2022-10-16T02:22:03;15.70;99.90
29917;DHT22;16786;49.466;11.068;2022-10-16T02:25:02;15.70;99.90
29917;DHT22;16786;49.466;11.068;2022-10-16T02:30:33;15.60;99.90
29917;DHT22;16786;49.466;11.068;2022-10-16T02:33:04;15.70;99.90
29917;DHT22;16786;49.466;11.068;2022-10-16T02:35:32;15.60;99.90
29917;DHT22;16786;49.466;11.068;2022-10-16T02:38:01;15.60;99.90
29917;DHT22;16786;49.466;11.068;2022-10-16T02:40:28;15.60;99.90
29917;DHT22;16786;49.466;11.068;2022-10-16T02:42:56;15.60;99.90
29917;DHT22;16786;49.466;11.068;2022-10-16T02:45:23;15.60;99.90
29917;DHT22;16786;49.466;11.068;2022-10-16T02:47:51;15.60;99.90
29917;DHT22;16786;49.466;11.068;2022-10-16T02:50:18;15.60;99.90
29917;DHT22;16786;49.466;11.068;2022-10-16T02:52:46;15.70;99.90
29917;DHT22;16786;49.466;11.068;2022-10-16T02:55:13;15.70;99.90
29917;DHT22;16786;49.466;11.068;2022-10-16T02:57:40;15.70;99.90
29917;DHT22;16786;49.466;11.068;2022-10-16T03:00:10;15.60;99.90
29917;DHT22;16786;49.466;11.068;2022-10-16T03:02:38;15.60;99.90
29917;DHT22;16786;49.466;11.068;2022-10-16T03:05:06;15.60;99.90
29917;DHT22;16786;49.466;11.068;2022-10-16T03:07:34;15.60;99.90
29917;DHT22;16786;49.466;11.068;2022-10-16T03:10:01;15.60;99.90
29917;DHT22;16786;49.466;11.068;2022-10-16T03:12:29;15.60;99.90
29917;DHT22;16786;49.466;11.068;2022-10-16T03:14:57;15.50;99.90
29917;DHT22;16786;49.466;11.068;2022-10-16T03:17:25;15.50;99.90
29917;DHT22;16786;49.466;11.068;2022-10-16T03:19:52;15.50;99.90
29917;DHT22;16786;49.466;11.068;2022-10-16T03:22:20;15.50;99.90
29917;DHT22;16786;49.466;11.068;2022-10-16T03:24:47;15.50;99.90
29917;DHT22;16786;49.466;11.068;2022-10-16T03:27:14;15.50;99.90
29917;DHT22;16786;49.466;11.068;2022-10-16T03:29:42;15.40;99.90
29917;DHT22;16786;49.466;11.068;2022-10-16T03:32:09;15.40;99.90
29917;DHT22;16786;49.466;11.068;2022-10-16T03:34:36;15.50;99.90
29917;DHT22;16786;49.466;11.068;2022-10-16T03:37:04;15.40;99.90
29917;DHT22;16786;49.466;11.068;2022-10-16T03:39:31;15.40;99.90
29917;DHT22;16786;49.466;11.068;2022-10-16T03:41:58;15.40;99.90
29917;DHT22;16786;49.466;11.068;2022-10-16T03:44:25;15.40;99.90
29917;DHT22;16786;49.466;11.068;2022-10-16T03:46:53;15.40;99.90
29917;DHT22;16786;49.466;11.068;2022-10-16T03:49:20;15.40;99.90
29917;DHT22;16786;49.466;11.068;2022-10-16T03:51:47;15.40;99.90
29917;DHT22;16786;49.466;11.068;2022-10-16T03:54:15;15.40;99.90
29917;DHT22;16786;49.466;11.068;2022-10-16T03:56:42;15.40;99.90
29917;DHT22;16786;49.466;11.068;2022-10-16T03:59:09;15.40;99.90
29917;DHT22;16786;49.466;11.068;2022-10-16T04:01:36;15.40;99.90
29917;DHT22;16786;49.466;11.068;2022-10-16T04:04:04;15.40;99.90
29917;DHT22;16786;49.466;11.068;2022-10-16T04:06:31;15.40;99.90
29917;DHT22;16786;49.466;11.068;2022-10-16T04:08:58;15.40;99.90
29917;DHT22;16786;49.466;11.068;2022-10-16T04:11:26;15.40;99.90
29917;DHT22;16786;49.466;11.068;2022-10-16T04:13:53;15.40;99.90
29917;DHT22;16786;49.466;11.068;2022-10-16T04:16:20;15.30;99.90
29917;DHT22;16786;49.466;11.068;2022-10-16T04:18:47;15.30;99.90
29917;DHT22;16786;49.466;11.068;2022-10-16T04:21:15;15.40;99.90
29917;DHT22;16786;49.466;11.068;2022-10-16T04:23:42;15.40;99.90
29917;DHT22;16786;49.466;11.068;2022-10-16T04:26:10;15.40;99.90
29917;DHT22;16786;49.466;11.068;2022-10-16T04:28:37;15.40;99.90
29917;DHT22;16786;49.466;11.068;2022-10-16T04:31:06;15.40;99.90
29917;DHT22;16786;49.466;11.068;2022-10-16T04:33:33;15.50;99.90
29917;DHT22;16786;49.466;11.068;2022-10-16T04:36:02;15.40;99.90
29917;DHT22;16786;49.466;11.068;2022-10-16T04:38:30;15.40;99.90
29917;DHT22;16786;49.466;11.068;2022-10-16T04:40:57;15.50;99.90
29917;DHT22;16786;49.466;11.068;2022-10-16T04:43:25;15.50;99.90
29917;DHT22;16786;49.466;11.068;2022-10-16T04:45:52;15.50;99.90
29917;DHT22;16786;49.466;11.068;2022-10-16T04:48:21;15.50;99.90
29917;DHT22;16786;49.466;11.068;2022-10-16T04:50:49;15.50;99.90
29917;DHT22;16786;49.466;11.068;2022-10-16T04:53:21;15.40;99.90
29917;DHT22;16786;49.466;11.068;2022-10-16T04:55:48;15.40;99.90
29917;DHT22;16786;49.466;11.068;2022-10-16T04:58:17;15.40;99.90
29917;DHT22;16786;49.466;11.068;2022-10-16T05:00:44;15.40;99.90
29917;DHT22;16786;49.466;11.068;2022-10-16T05:03:13;15.40;99.90
29917;DHT22;16786;49.466;11.068;2022-10-16T05:05:44;15.40;99.90
29917;DHT22;16786;49.466;11.068;2022-10-16T05:08:13;15.40;99.90
29917;DHT22;16786;49.466;11.068;2022-10-16T05:10:42;15.30;99.90
29917;DHT22;16786;49.466;11.068;2022-10-16T05:13:13;15.30;99.90
29917;DHT22;16786;49.466;11.068;2022-10-16T05:15:47;15.30;99.90
29917;DHT22;16786;49.466;11.068;2022-10-16T05:18:16;15.30;99.90
29917;DHT22;16786;49.466;11.068;2022-10-16T05:20:43;15.30;99.90
29917;DHT22;16786;49.466;11.068;2022-10-16T05:23:10;15.30;99.90
29917;DHT22;16786;49.466;11.068;2022-10-16T05:25:39;15.30;99.90
29917;DHT22;16786;49.466;11.068;2022-10-16T05:28:06;15.30;99.90
29917;DHT22;16786;49.466;11.068;2022-10-16T05:30:34;15.20;99.90
29917;DHT22;16786;49.466;11.068;2022-10-16T05:33:03;15.20;99.90
29917;DHT22;16786;49.466;11.068;2022-10-16T05:35:31;15.30;99.90
29917;DHT22;16786;49.466;11.068;2022-10-16T05:37:58;15.30;99.90
29917;DHT22;16786;49.466;11.068;2022-10-16T05:40:26;15.40;99.90
29917;DHT22;16786;49.466;11.068;2022-10-16T05:42:56;15.40;99.90
29917;DHT22;16786;49.466;11.068;2022-10-16T05:45:23;15.40;99.90
29917;DHT22;16786;49.466;11.068;2022-10-16T05:47:51;15.40;99.90
29917;DHT22;16786;49.466;11.068;2022-10-16T05:50:18;15.40;99.90
29917;DHT22;16786;49.466;11.068;2022-10-16T05:52:46;15.50;99.90
29917;DHT22;16786;49.466;11.068;2022-10-16T05:55:13;15.40;99.90
29917;DHT22;16786;49.466;11.068;2022-10-16T05:57:40;15.40;99.90
29917;DHT22;16786;49.466;11.068;2022-10-16T06:00:11;15.40;99.90
29917;DHT22;16786;49.466;11.068;2022-10-16T06:02:38;15.50;99.90
29917;DHT22;16786;49.466;11.068;2022-10-16T06:05:06;15.50;99.90
29917;DHT22;16786;49.466;11.068;2022-10-16T06:07:36;15.50;99.90
29917;DHT22;16786;49.466;11.068;2022-10-16T06:10:04;15.50;99.90
29917;DHT22;16786;49.466;11.068;2022-10-16T06:12:32;15.50;99.90
29917;DHT22;16786;49.466;11.068;2022-10-16T06:15:01;15.50;99.90
29917;DHT22;16786;49.466;11.068;2022-10-16T06:17:28;15.50;99.90
29917;DHT22;16786;49.466;11.068;2022-10-16T06:19:56;15.60;99.90
29917;DHT22;16786;49.466;11.068;2022-10-16T06:22:23;15.60;99.90
29917;DHT22;16786;49.466;11.068;2022-10-16T06:24:50;15.60;99.90
29917;DHT22;16786;49.466;11.068;2022-10-16T06:27:17;15.70;99.90
29917;DHT22;16786;49.466;11.068;2022-10-16T06:29:45;15.70;99.90
29917;DHT22;16786;49.466;11.068;2022-10-16T06:32:12;15.80;99.90
29917;DHT22;16786;49.466;11.068;2022-10-16T06:34:39;15.80;99.90
29917;DHT22;16786;49.466;11.068;2022-10-16T06:37:10;15.90;99.90
29917;DHT22;16786;49.466;11.068;2022-10-16T06:39:37;15.90;99.90
29917;DHT22;16786;49.466;11.068;2022-10-16T06:42:04;16.00;99.90
29917;DHT22;16786;49.466;11.068;2022-10-16T06:44:35;16.00;99.90
29917;DHT22;16786;49.466;11.068;2022-10-16T06:47:02;16.10;99.90
29917;DHT22;16786;49.466;11.068;2022-10-16T06:49:30;16.20;99.90
29917;DHT22;16786;49.466;11.068;2022-10-16T06:51:58;16.20;99.90
29917;DHT22;16786;49.466;11.068;2022-10-16T06:54:25;16.20;99.90
29917;DHT22;16786;49.466;11.068;2022-10-16T06:56:53;16.20;99.90
29917;DHT22;16786;49.466;11.068;2022-10-16T06:59:21;16.20;99.90
29917;DHT22;16786;49.466;11.068;2022-10-16T07:01:49;16.20;99.90
29917;DHT22;16786;49.466;11.068;2022-10-16T07:04:16;16.20;99.90
29917;DHT22;16786;49.466;11.068;2022-10-16T07:06:43;16.20;99.90
29917;DHT22;16786;49.466;11.068;2022-10-16T07:09:11;16.20;99.90
29917;DHT22;16786;49.466;11.068;2022-10-16T07:11:39;16.30;99.90
29917;DHT22;16786;49.466;11.068;2022-10-16T07:14:16;16.30;99.90
29917;DHT22;16786;49.466;11.068;2022-10-16T07:16:44;16.30;99.90
29917;DHT22;16786;49.466;11.068;2022-10-16T07:19:11;16.40;99.90
29917;DHT22;16786;49.466;11.068;2022-10-16T07:21:41;16.40;99.90
29917;DHT22;16786;49.466;11.068;2022-10-16T07:24:14;16.50;99.90
29917;DHT22;16786;49.466;11.068;2022-10-16T07:26:43;16.50;99.90
29917;DHT22;16786;49.466;11.068;2022-10-16T07:29:13;16.50;99.90
29917;DHT22;16786;49.466;11.068;2022-10-16T07:31:41;16.60;99.90
29917;DHT22;16786;49.466;11.068;2022-10-16T07:34:10;16.60;99.90
29917;DHT22;16786;49.466;11.068;2022-10-16T07:36:38;16.60;99.90
29917;DHT22;16786;49.466;11.068;2022-10-16T07:39:06;16.60;99.90
29917;DHT22;16786;49.466;11.068;2022-10-16T07:41:33;16.70;99.90
29917;DHT22;16786;49.466;11.068;2022-10-16T07:44:04;16.70;99.90
29917;DHT22;16786;49.466;11.068;2022-10-16T07:46:31;16.70;99.90
29917;DHT22;16786;49.466;11.068;2022-10-16T07:49:00;16.70;99.90
29917;DHT22;16786;49.466;11.068;2022-10-16T07:51:28;16.80;99.90
29917;DHT22;16786;49.466;11.068;2022-10-16T07:53:55;16.80;99.90
29917;DHT22;16786;49.466;11.068;2022-10-16T07:56:22;17.00;99.90
29917;DHT22;16786;49.466;11.068;2022-10-16T07:58:50;17.00;99.90
29917;DHT22;16786;49.466;11.068;2022-10-16T08:01:19;17.10;99.90
29917;DHT22;16786;49.466;11.068;2022-10-16T08:03:48;17.20;99.90
29917;DHT22;16786;49.466;11.068;2022-10-16T08:06:17;17.20;99.90
29917;DHT22;16786;49.466;11.068;2022-10-16T08:08:50;17.20;99.90
29917;DHT22;16786;49.466;11.068;2022-10-16T08:11:17;17.30;99.90
29917;DHT22;16786;49.466;11.068;2022-10-16T08:13:44;17.40;99.90
29917;DHT22;16786;49.466;11.068;2022-10-16T08:16:12;17.40;99.90
29917;DHT22;16786;49.466;11.068;2022-10-16T08:18:40;17.40;99.90
29917;DHT22;16786;49.466;11.068;2022-10-16T08:21:13;17.30;99.90
29917;DHT22;16786;49.466;11.068;2022-10-16T08:23:48;17.40;99.90
29917;DHT22;16786;49.466;11.068;2022-10-16T08:26:25;17.40;99.90
29917;DHT22;16786;49.466;11.068;2022-10-16T08:28:53;17.40;99.90
29917;DHT22;16786;49.466;11.068;2022-10-16T08:31:21;17.50;99.90
29917;DHT22;16786;49.466;11.068;2022-10-16T08:33:49;17.60;99.90
29917;DHT22;16786;49.466;11.068;2022-10-16T08:36:16;17.70;99.90
29917;DHT22;16786;49.466;11.068;2022-10-16T08:38:47;17.80;99.90
29917;DHT22;16786;49.466;11.068;2022-10-16T08:41:38;18.00;99.90
29917;DHT22;16786;49.466;11.068;2022-10-16T08:49:33;18.40;99.90
29917;DHT22;16786;49.466;11.068;2022-10-16T08:52:00;18.40;99.90
29917;DHT22;16786;49.466;11.068;2022-10-16T08:54:45;18.50;99.90
29917;DHT22;16786;49.466;11.068;2022-10-16T08:57:21;18.50;99.90
29917;DHT22;16786;49.466;11.068;2022-10-16T08:59:51;18.70;99.90
29917;DHT22;16786;49.466;11.068;2022-10-16T09:02:53;18.80;99.90
29917;DHT22;16786;49.466;11.068;2022-10-16T09:05:35;19.00;99.90
29917;DHT22;16786;49.466;11.068;2022-10-16T09:08:09;19.10;99.90
29917;DHT22;16786;49.466;11.068;2022-10-16T09:10:59;19.20;99.90
29917;DHT22;16786;49.466;11.068;2022-10-16T09:16:24;19.10;99.90
29917;DHT22;16786;49.466;11.068;2022-10-16T09:19:04;19.30;99.90
29917;DHT22;16786;49.466;11.068;2022-10-16T09:21:41;19.50;99.90
29917;DHT22;16786;49.466;11.068;2022-10-16T09:24:17;19.60;99.90
29917;DHT22;16786;49.466;11.068;2022-10-16T09:26:47;19.50;99.90
29917;DHT22;16786;49.466;11.068;2022-10-16T09:29:17;19.40;99.90
29917;DHT22;16786;49.466;11.068;2022-10-16T09:31:48;19.40;99.90
29917;DHT22;16786;49.466;11.068;2022-10-16T09:34:37;19.30;99.90
29917;DHT22;16786;49.466;11.068;2022-10-16T09:37:14;19.10;99.90
29917;DHT22;16786;49.466;11.068;2022-10-16T09:39:46;18.90;99.90
29917;DHT22;16786;49.466;11.068;2022-10-16T09:42:22;18.70;99.90
29917;DHT22;16786;49.466;11.068;2022-10-16T09:44:52;18.70;99.90
29917;DHT22;16786;49.466;11.068;2022-10-16T09:47:23;18.60;99.90
29917;DHT22;16786;49.466;11.068;2022-10-16T09:50:04;18.50;99.90
29917;DHT22;16786;49.466;11.068;2022-10-16T09:52:33;18.50;99.90
29917;DHT22;16786;49.466;11.068;2022-10-16T09:55:16;18.40;99.90
29917;DHT22;16786;49.466;11.068;2022-10-16T09:57:54;18.40;99.90
29917;DHT22;16786;49.466;11.068;2022-10-16T10:00:24;18.40;99.90
29917;DHT22;16786;49.466;11.068;2022-10-16T10:02:53;18.40;99.90
29917;DHT22;16786;49.466;11.068;2022-10-16T10:05:28;18.50;99.90
29917;DHT22;16786;49.466;11.068;2022-10-16T10:08:01;18.80;99.90
29917;DHT22;16786;49.466;11.068;2022-10-16T10:10:41;19.20;99.90
29917;DHT22;16786;49.466;11.068;2022-10-16T10:13:23;19.30;99.90
29917;DHT22;16786;49.466;11.068;2022-10-16T10:15:52;19.50;99.90
29917;DHT22;16786;49.466;11.068;2022-10-16T10:18:21;19.70;99.90
29917;DHT22;16786;49.466;11.068;2022-10-16T10:20:58;20.00;99.90
29917;DHT22;16786;49.466;11.068;2022-10-16T10:23:28;20.30;99.90
29917;DHT22;16786;49.466;11.068;2022-10-16T10:25:59;20.40;99.90
29917;DHT22;16786;49.466;11.068;2022-10-16T10:40:07;20.50;99.90
29917;DHT22;16786;49.466;11.068;2022-10-16T10:42:48;20.60;99.90
29917;DHT22;16786;49.466;11.068;2022-10-16T10:56:47;21.30;99.90
29917;DHT22;16786;49.466;11.068;2022-10-16T10:59:45;21.20;99.90
29917;DHT22;16786;49.466;11.068;2022-10-16T11:05:27;21.20;99.90
29917;DHT22;16786;49.466;11.068;2022-10-16T11:08:04;21.20;99.90
29917;DHT22;16786;49.466;11.068;2022-10-16T11:13:34;21.30;99.90
29917;DHT22;16786;49.466;11.068;2022-10-16T11:16:29;21.40;99.90
29917;DHT22;16786;49.466;11.068;2022-10-16T11:21:38;21.60;99.90
29917;DHT22;16786;49.466;11.068;2022-10-16T11:24:16;21.70;99.90
29917;DHT22;16786;49.466;11.068;2022-10-16T11:26:47;21.80;99.90
29917;DHT22;16786;49.466;11.068;2022-10-16T11:29:23;21.80;99.90
29917;DHT22;16786;49.466;11.068;2022-10-16T11:32:03;21.90;99.90
29917;DHT22;16786;49.466;11.068;2022-10-16T11:34:38;21.90;99.90
29917;DHT22;16786;49.466;11.068;2022-10-16T11:37:12;22.00;99.90
29917;DHT22;16786;49.466;11.068;2022-10-16T11:39:43;22.20;99.90
29917;DHT22;16786;49.466;11.068;2022-10-16T11:42:19;22.40;99.90
29917;DHT22;16786;49.466;11.068;2022-10-16T11:47:51;22.90;99.90
29917;DHT22;16786;49.466;11.068;2022-10-16T11:50:45;23.40;99.90
29917;DHT22;16786;49.466;11.068;2022-10-16T11:55:51;24.40;99.90
29917;DHT22;16786;49.466;11.068;2022-10-16T12:06:34;24.60;99.90
29917;DHT22;16786;49.466;11.068;2022-10-16T12:09:03;24.90;99.90
29917;DHT22;16786;49.466;11.068;2022-10-16T12:11:37;25.00;99.90
29917;DHT22;16786;49.466;11.068;2022-10-16T12:14:17;25.80;99.90
29917;DHT22;16786;49.466;11.068;2022-10-16T12:19:26;26.20;99.90
29917;DHT22;16786;49.466;11.068;2022-10-16T12:21:59;26.60;99.90
29917;DHT22;16786;49.466;11.068;2022-10-16T12:26:54;30.10;99.90
29917;DHT22;16786;49.466;11.068;2022-10-16T12:29:41;31.30;99.90
29917;DHT22;16786;49.466;11.068;2022-10-16T12:35:20;33.80;99.90
29917;DHT22;16786;49.466;11.068;2022-10-16T12:37:49;33.10;99.90
29917;DHT22;16786;49.466;11.068;2022-10-16T12:40:30;32.20;99.90
29917;DHT22;16786;49.466;11.068;2022-10-16T12:42:58;31.40;99.90
29917;DHT22;16786;49.466;11.068;2022-10-16T12:47:55;29.60;99.90
29917;DHT22;16786;49.466;11.068;2022-10-16T12:50:43;28.60;99.90
29917;DHT22;16786;49.466;11.068;2022-10-16T12:53:23;27.40;99.90
29917;DHT22;16786;49.466;11.068;2022-10-16T12:56:31;27.50;99.90
29917;DHT22;16786;49.466;11.068;2022-10-16T13:04:45;26.50;99.90
29917;DHT22;16786;49.466;11.068;2022-10-16T13:10:08;26.50;99.90
29917;DHT22;16786;49.466;11.068;2022-10-16T13:18:16;27.20;99.90
29917;DHT22;16786;49.466;11.068;2022-10-16T13:28:46;35.60;99.90
29917;DHT22;16786;49.466;11.068;2022-10-16T13:31:22;36.60;99.90
29917;DHT22;16786;49.466;11.068;2022-10-16T13:33:58;36.50;99.40
29917;DHT22;16786;49.466;11.068;2022-10-16T13:36:35;35.50;98.70
29917;DHT22;16786;49.466;11.068;2022-10-16T13:39:23;33.80;99.60
29917;DHT22;16786;49.466;11.068;2022-10-16T13:44:47;30.80;99.90
29917;DHT22;16786;49.466;11.068;2022-10-16T13:47:23;30.90;99.90
29917;DHT22;16786;49.466;11.068;2022-10-16T13:50:09;32.70;99.90
29917;DHT22;16786;49.466;11.068;2022-10-16T13:52:38;33.80;99.90
29917;DHT22;16786;49.466;11.068;2022-10-16T13:55:17;34.70;97.30
29917;DHT22;16786;49.466;11.068;2022-10-16T13:57:45;35.70;96.20
29917;DHT22;16786;49.466;11.068;2022-10-16T14:03:12;37.60;93.20
29917;DHT22;16786;49.466;11.068;2022-10-16T14:05:49;38.70;92.20
29917;DHT22;16786;49.466;11.068;2022-10-16T14:08:18;37.70;90.40
29917;DHT22;16786;49.466;11.068;2022-10-16T14:10:57;38.20;89.60
29917;DHT22;16786;49.466;11.068;2022-10-16T14:13:33;38.70;90.10
29917;DHT22;16786;49.466;11.068;2022-10-16T14:16:07;39.10;87.70
29917;DHT22;16786;49.466;11.068;2022-10-16T14:18:37;39.70;87.40
29917;DHT22;16786;49.466;11.068;2022-10-16T14:21:07;39.90;84.80
29917;DHT22;16786;49.466;11.068;2022-10-16T14:23:40;39.70;83.40
29917;DHT22;16786;49.466;11.068;2022-10-16T14:28:42;39.60;80.90
29917;DHT22;16786;49.466;11.068;2022-10-16T14:31:31;39.50;79.90
29917;DHT22;16786;49.466;11.068;2022-10-16T14:33:59;39.30;79.60
29917;DHT22;16786;49.466;11.068;2022-10-16T14:36:28;39.30;79.70
29917;DHT22;16786;49.466;11.068;2022-10-16T14:39:28;37.50;79.80
29917;DHT22;16786;49.466;11.068;2022-10-16T14:41:57;35.10;83.20
29917;DHT22;16786;49.466;11.068;2022-10-16T14:44:33;32.60;88.70
29917;DHT22;16786;49.466;11.068;2022-10-16T14:47:13;30.60;91.60
29917;DHT22;16786;49.466;11.068;2022-10-16T14:49:42;28.80;94.00
29917;DHT22;16786;49.466;11.068;2022-10-16T14:52:11;27.80;97.30
29917;DHT22;16786;49.466;11.068;2022-10-16T14:54:40;27.20;98.80
29917;DHT22;16786;49.466;11.068;2022-10-16T14:57:17;26.70;99.90
29917;DHT22;16786;49.466;11.068;2022-10-16T14:59:45;26.20;99.90
29917;DHT22;16786;49.466;11.068;2022-10-16T15:02:32;25.90;99.90
29917;DHT22;16786;49.466;11.068;2022-10-16T15:05:25;26.10;99.90
29917;DHT22;16786;49.466;11.068;2022-10-16T15:07:54;26.20;99.90
29917;DHT22;16786;49.466;11.068;2022-10-16T15:10:24;25.80;99.90
29917;DHT22;16786;49.466;11.068;2022-10-16T15:12:52;25.50;99.90
29917;DHT22;16786;49.466;11.068;2022-10-16T15:17:52;24.90;99.90
29917;DHT22;16786;49.466;11.068;2022-10-16T15:20:24;24.50;99.90
29917;DHT22;16786;49.466;11.068;2022-10-16T15:22:51;24.20;99.90
29917;DHT22;16786;49.466;11.068;2022-10-16T15:27:55;23.70;99.90
29917;DHT22;16786;49.466;11.068;2022-10-16T15:30:23;23.40;99.90
29917;DHT22;16786;49.466;11.068;2022-10-16T15:32:52;23.10;99.90
29917;DHT22;16786;49.466;11.068;2022-10-16T15:35:19;22.80;99.90
29917;DHT22;16786;49.466;11.068;2022-10-16T15:37:47;22.60;99.90
29917;DHT22;16786;49.466;11.068;2022-10-16T15:40:16;22.40;99.90
29917;DHT22;16786;49.466;11.068;2022-10-16T15:42:44;22.10;99.90
29917;DHT22;16786;49.466;11.068;2022-10-16T15:45:12;22.00;99.90
29917;DHT22;16786;49.466;11.068;2022-10-16T15:47:41;21.90;99.90
29917;DHT22;16786;49.466;11.068;2022-10-16T15:50:13;21.80;99.90
29917;DHT22;16786;49.466;11.068;2022-10-16T15:52:41;21.60;99.90
29917;DHT22;16786;49.466;11.068;2022-10-16T15:55:10;21.50;99.90
29917;DHT22;16786;49.466;11.068;2022-10-16T15:57:38;21.40;99.90
29917;DHT22;16786;49.466;11.068;2022-10-16T16:00:10;21.30;99.90
29917;DHT22;16786;49.466;11.068;2022-10-16T16:02:38;21.20;99.90
29917;DHT22;16786;49.466;11.068;2022-10-16T16:05:07;21.10;99.90
29917;DHT22;16786;49.466;11.068;2022-10-16T16:07:36;21.00;99.90
29917;DHT22;16786;49.466;11.068;2022-10-16T16:10:06;20.90;99.90
29917;DHT22;16786;49.466;11.068;2022-10-16T16:12:34;20.80;99.90
29917;DHT22;16786;49.466;11.068;2022-10-16T16:15:03;20.80;99.90
29917;DHT22;16786;49.466;11.068;2022-10-16T16:17:33;20.70;99.90
29917;DHT22;16786;49.466;11.068;2022-10-16T16:20:01;20.80;99.90
29917;DHT22;16786;49.466;11.068;2022-10-16T16:22:28;20.70;99.90
29917;DHT22;16786;49.466;11.068;2022-10-16T16:24:56;20.80;99.90
29917;DHT22;16786;49.466;11.068;2022-10-16T16:27:23;20.70;99.90
29917;DHT22;16786;49.466;11.068;2022-10-16T16:29:52;20.60;99.90
29917;DHT22;16786;49.466;11.068;2022-10-16T16:32:22;20.60;99.90
29917;DHT22;16786;49.466;11.068;2022-10-16T16:34:49;20.50;99.90
29917;DHT22;16786;49.466;11.068;2022-10-16T16:37:16;20.40;99.90
29917;DHT22;16786;49.466;11.068;2022-10-16T16:39:44;20.30;99.90
29917;DHT22;16786;49.466;11.068;2022-10-16T16:42:11;20.20;99.90
29917;DHT22;16786;49.466;11.068;2022-10-16T16:44:39;20.20;99.90
29917;DHT22;16786;49.466;11.068;2022-10-16T16:47:06;20.10;99.90
29917;DHT22;16786;49.466;11.068;2022-10-16T16:49:33;20.10;99.90
29917;DHT22;16786;49.466;11.068;2022-10-16T16:52:00;20.00;99.90
29917;DHT22;16786;49.466;11.068;2022-10-16T16:54:28;19.90;99.90
29917;DHT22;16786;49.466;11.068;2022-10-16T16:56:55;19.90;99.90
29917;DHT22;16786;49.466;11.068;2022-10-16T16:59:23;19.80;99.90
29917;DHT22;16786;49.466;11.068;2022-10-16T17:01:50;19.80;99.90
29917;DHT22;16786;49.466;11.068;2022-10-16T17:04:23;19.70;99.90
29917;DHT22;16786;49.466;11.068;2022-10-16T17:06:53;19.70;99.90
29917;DHT22;16786;49.466;11.068;2022-10-16T17:09:20;19.60;99.90
29917;DHT22;16786;49.466;11.068;2022-10-16T17:11:47;19.60;99.90
29917;DHT22;16786;49.466;11.068;2022-10-16T17:14:15;19.60;99.90
29917;DHT22;16786;49.466;11.068;2022-10-16T17:16:42;19.50;99.90
29917;DHT22;16786;49.466;11.068;2022-10-16T17:19:13;19.50;99.90
29917;DHT22;16786;49.466;11.068;2022-10-16T17:21:41;19.50;99.90
29917;DHT22;16786;49.466;11.068;2022-10-16T17:24:09;19.40;99.90
29917;DHT22;16786;49.466;11.068;2022-10-16T17:26:37;19.40;99.90
29917;DHT22;16786;49.466;11.068;2022-10-16T17:29:10;19.40;99.90
29917;DHT22;16786;49.466;11.068;2022-10-16T17:31:38;19.30;99.90
29917;DHT22;16786;49.466;11.068;2022-10-16T17:34:08;19.30;99.90
29917;DHT22;16786;49.466;11.068;2022-10-16T17:36:37;19.30;99.90